createdAt,value
2019-05-12T00:00:07.966Z,84.79
2019-05-12T00:01:09.132Z,85.10
2019-05-12T00:02:07.704Z,85.41
2019-05-12T00:03:08.473Z,85.14
2019-05-12T00:04:08.249Z,85.55
2019-05-12T00:05:08.708Z,85.35
2019-05-12T00:06:08.762Z,85.24
2019-05-12T00:07:08.734Z,85.35
2019-05-12T00:08:08.271Z,85.14
2019-05-12T00:09:08.397Z,85.45
2019-05-12T00:10:08.616Z,85.62
2019-05-12T00:11:08.793Z,85.14
2019-05-12T00:12:08.253Z,85.24
2019-05-12T00:13:08.387Z,85.24
2019-05-12T00:14:08.609Z,85.24
2019-05-12T00:15:08.171Z,85.76
2019-05-12T00:16:08.700Z,85.55
2019-05-12T00:17:08.188Z,85.45
2019-05-12T00:18:08.861Z,85.66
2019-05-12T00:19:09.089Z,85.66
2019-05-12T00:20:08.494Z,85.35
2019-05-12T00:21:08.663Z,85.45
2019-05-12T00:22:07.689Z,85.55
2019-05-12T00:23:23.412Z,85.45
2019-05-12T00:24:08.032Z,85.66
2019-05-12T00:25:08.635Z,85.55
2019-05-12T00:26:07.982Z,85.66
2019-05-12T00:27:08.435Z,85.76
2019-05-12T00:28:07.826Z,85.66
2019-05-12T00:29:07.674Z,85.70
2019-05-12T00:30:09.971Z,85.97
2019-05-12T00:31:08.408Z,86.32
2019-05-12T00:32:08.466Z,86.21
2019-05-12T00:33:08.928Z,86.32
2019-05-12T00:34:07.783Z,86.32
2019-05-12T00:35:07.813Z,86.52
2019-05-12T00:36:08.065Z,86.21
2019-05-12T00:37:08.334Z,87.04
2019-05-12T00:38:08.677Z,87.25
2019-05-12T00:39:08.569Z,87.25
2019-05-12T00:40:08.213Z,87.70
2019-05-12T00:41:08.640Z,86.98
2019-05-12T00:42:07.831Z,87.91
2019-05-12T00:43:08.444Z,88.84
2019-05-12T00:44:08.206Z,88.57
2019-05-12T00:45:08.114Z,88.53
2019-05-12T00:46:07.925Z,88.36
2019-05-12T00:47:08.137Z,88.46
2019-05-12T00:48:08.747Z,88.46
2019-05-12T00:49:08.047Z,88.36
2019-05-12T00:50:08.011Z,88.46
2019-05-12T00:51:07.749Z,88.46
2019-05-12T00:52:08.056Z,88.46
2019-05-12T00:53:08.623Z,88.67
2019-05-12T00:54:08.871Z,88.57
2019-05-12T00:55:07.908Z,88.67
2019-05-12T00:56:08.333Z,87.54
2019-05-12T00:57:07.743Z,87.43
2019-05-12T00:58:08.297Z,87.47
2019-05-12T00:59:08.280Z,86.85
2019-05-12T01:00:08.221Z,87.16
2019-05-12T01:01:08.135Z,87.27
2019-05-12T01:02:07.946Z,87.33
2019-05-12T01:03:08.421Z,87.12
2019-05-12T01:04:08.527Z,87.33
2019-05-12T01:05:08.396Z,87.12
2019-05-12T01:06:08.311Z,87.95
2019-05-12T01:07:08.521Z,88.88
2019-05-12T01:08:08.492Z,88.46
2019-05-12T01:09:08.560Z,88.51
2019-05-12T01:10:08.454Z,89.13
2019-05-12T01:11:08.646Z,89.03
2019-05-12T01:12:07.943Z,88.92
2019-05-12T01:13:08.275Z,89.65
2019-05-12T01:14:08.323Z,89.48
2019-05-12T01:15:07.507Z,90.52
2019-05-12T01:16:07.943Z,90.41
2019-05-12T01:17:08.278Z,90.31
2019-05-12T01:18:05.979Z,90.20
2019-05-12T01:19:07.990Z,90.35
2019-05-12T01:20:05.936Z,90.35
2019-05-12T01:21:07.764Z,90.83
2019-05-12T01:22:08.101Z,90.66
2019-05-12T01:23:08.241Z,90.62
2019-05-12T01:24:08.328Z,91.18
2019-05-12T01:25:08.357Z,91.18
2019-05-12T01:26:05.871Z,90.97
2019-05-12T01:27:05.856Z,91.80
2019-05-12T01:28:07.926Z,91.28
2019-05-12T01:29:08.240Z,91.70
2019-05-12T01:30:05.830Z,91.49
2019-05-12T01:31:05.816Z,91.28
2019-05-12T01:32:07.952Z,91.91
2019-05-12T01:33:08.259Z,91.64
2019-05-12T01:34:07.959Z,91.85
2019-05-12T01:35:07.950Z,92.57
2019-05-12T01:36:07.984Z,92.36
2019-05-12T01:37:07.876Z,92.63
2019-05-12T01:38:07.797Z,92.68
2019-05-12T01:39:08.187Z,92.53
2019-05-12T01:40:08.500Z,92.11
2019-05-12T01:41:05.759Z,92.26
2019-05-12T01:42:05.726Z,92.26
2019-05-12T01:43:08.248Z,92.36
2019-05-12T01:44:05.670Z,92.36
2019-05-12T01:45:05.659Z,92.16
2019-05-12T01:46:07.894Z,92.84
2019-05-12T01:47:08.244Z,92.47
2019-05-12T01:48:08.327Z,92.57
2019-05-12T01:49:07.983Z,92.16
2019-05-12T01:50:05.605Z,92.26
2019-05-12T01:51:05.597Z,92.57
2019-05-12T01:52:05.587Z,92.68
2019-05-12T01:53:07.887Z,92.88
2019-05-12T01:54:11.667Z,92.57
2019-05-12T01:55:08.175Z,92.68
2019-05-12T01:56:07.719Z,92.88
2019-05-12T01:57:07.967Z,93.08
2019-05-12T01:58:05.519Z,92.57
2019-05-12T01:59:07.932Z,93.08
2019-05-12T02:00:07.926Z,92.98
2019-05-12T02:01:05.489Z,93.19
2019-05-12T02:02:05.479Z,92.98
2019-05-12T02:03:05.468Z,93.23
2019-05-12T02:04:07.588Z,92.93
2019-05-12T02:05:08.233Z,93.23
2019-05-12T02:06:05.450Z,93.44
2019-05-12T02:07:05.422Z,93.54
2019-05-12T02:08:05.414Z,93.54
2019-05-12T02:09:05.399Z,93.96
2019-05-12T02:10:05.388Z,93.44
2019-05-12T02:11:07.854Z,93.33
2019-05-12T02:12:05.376Z,93.75
2019-05-12T02:13:07.729Z,93.54
2019-05-12T02:14:05.351Z,93.75
2019-05-12T02:15:07.995Z,93.75
2019-05-12T02:16:05.327Z,93.65
2019-05-12T02:17:05.381Z,93.85
2019-05-12T02:18:05.314Z,93.96
2019-05-12T02:19:05.291Z,93.85
2019-05-12T02:20:07.613Z,93.75
2019-05-12T02:21:05.267Z,93.85
2019-05-12T02:22:05.266Z,94.06
2019-05-12T02:23:05.314Z,93.85
2019-05-12T02:24:07.596Z,93.90
2019-05-12T02:25:07.925Z,94.27
2019-05-12T02:26:05.216Z,94.37
2019-05-12T02:27:05.206Z,94.58
2019-05-12T02:28:05.200Z,94.68
2019-05-12T02:29:07.703Z,94.63
2019-05-12T02:30:09.293Z,94.73
2019-05-12T02:31:05.162Z,94.53
2019-05-12T02:32:05.151Z,94.89
2019-05-12T02:33:05.429Z,94.58
2019-05-12T02:34:05.783Z,94.63
2019-05-12T02:35:05.871Z,94.68
2019-05-12T02:36:05.124Z,94.58
2019-05-12T02:37:05.536Z,94.48
2019-05-12T02:38:05.498Z,94.79
2019-05-12T02:39:05.441Z,94.48
2019-05-12T02:40:05.082Z,94.53
2019-05-12T02:41:05.096Z,94.17
2019-05-12T02:42:05.311Z,93.96
2019-05-12T02:43:05.776Z,94.06
2019-05-12T02:44:05.526Z,94.27
2019-05-12T02:45:05.690Z,94.17
2019-05-12T02:46:05.063Z,94.27
2019-05-12T02:47:05.320Z,94.27
2019-05-12T02:48:05.609Z,94.17
2019-05-12T02:49:05.271Z,94.17
2019-05-12T02:50:05.459Z,94.17
2019-05-12T02:51:05.699Z,94.48
2019-05-12T02:52:05.229Z,94.06
2019-05-12T02:53:05.411Z,94.79
2019-05-12T02:54:05.454Z,94.68
2019-05-12T02:55:06.227Z,94.68
2019-05-12T02:56:05.205Z,94.37
2019-05-12T02:57:04.895Z,94.06
2019-05-12T02:58:05.787Z,94.17
2019-05-12T02:59:05.677Z,94.79
2019-05-12T03:00:05.312Z,94.06
2019-05-12T03:01:05.579Z,94.27
2019-05-12T03:02:05.405Z,94.12
2019-05-12T03:03:05.533Z,94.27
2019-05-12T03:04:05.904Z,94.12
2019-05-12T03:05:05.690Z,94.37
2019-05-12T03:06:05.640Z,93.50
2019-05-12T03:07:06.473Z,94.33
2019-05-12T03:08:05.199Z,93.91
2019-05-12T03:09:05.001Z,94.23
2019-05-12T03:10:05.210Z,94.64
2019-05-12T03:11:06.002Z,94.12
2019-05-12T03:12:05.955Z,94.23
2019-05-12T03:13:04.796Z,94.23
2019-05-12T03:14:04.704Z,94.02
2019-05-12T03:15:05.634Z,93.91
2019-05-12T03:16:05.224Z,94.02
2019-05-12T03:17:04.874Z,93.98
2019-05-12T03:18:06.367Z,93.40
2019-05-12T03:19:05.273Z,93.77
2019-05-12T03:20:05.127Z,93.66
2019-05-12T03:21:05.825Z,93.66
2019-05-12T03:22:05.165Z,94.18
2019-05-12T03:23:06.330Z,93.77
2019-05-12T03:24:06.099Z,93.77
2019-05-12T03:25:15.510Z,93.56
2019-05-12T03:26:05.566Z,93.66
2019-05-12T03:27:04.569Z,93.56
2019-05-12T03:28:08.273Z,93.46
2019-05-12T03:29:05.714Z,93.35
2019-05-12T03:30:10.091Z,93.46
2019-05-12T03:31:07.925Z,93.35
2019-05-12T03:32:08.240Z,93.35
2019-05-12T03:33:09.170Z,93.66
2019-05-12T03:34:09.137Z,93.25
2019-05-12T03:35:08.736Z,93.35
2019-05-12T03:36:09.088Z,93.77
2019-05-12T03:37:07.695Z,93.25
2019-05-12T03:38:04.558Z,93.62
2019-05-12T03:39:04.452Z,93.66
2019-05-12T03:40:05.491Z,93.46
2019-05-12T03:41:05.333Z,93.56
2019-05-12T03:42:05.265Z,93.52
2019-05-12T03:43:05.376Z,93.62
2019-05-12T03:44:05.322Z,93.52
2019-05-12T03:45:04.832Z,93.73
2019-05-12T03:46:05.415Z,93.93
2019-05-12T03:47:05.206Z,94.04
2019-05-12T03:48:04.490Z,93.73
2019-05-12T03:49:05.412Z,93.83
2019-05-12T03:50:04.791Z,93.62
2019-05-12T03:51:05.748Z,93.73
2019-05-12T03:52:05.183Z,93.52
2019-05-12T03:53:09.810Z,93.41
2019-05-12T03:54:05.497Z,94.04
2019-05-12T03:55:05.548Z,93.83
2019-05-12T03:56:04.556Z,93.73
2019-05-12T03:57:04.612Z,93.79
2019-05-12T03:58:04.612Z,93.48
2019-05-12T03:59:05.026Z,93.58
2019-05-12T04:00:05.138Z,93.58
2019-05-12T04:01:04.815Z,93.27
2019-05-12T04:02:04.925Z,93.99
2019-05-12T04:03:05.001Z,93.79
2019-05-12T04:04:05.131Z,93.58
2019-05-12T04:05:05.216Z,93.16
2019-05-12T04:06:04.845Z,93.58
2019-05-12T04:07:05.159Z,93.58
2019-05-12T04:08:05.561Z,93.37
2019-05-12T04:09:04.764Z,93.48
2019-05-12T04:10:05.169Z,93.16
2019-05-12T04:11:05.324Z,93.27
2019-05-12T04:12:05.255Z,93.68
2019-05-12T04:13:04.724Z,93.79
2019-05-12T04:14:05.506Z,93.79
2019-05-12T04:15:05.129Z,93.48
2019-05-12T04:16:05.020Z,93.79
2019-05-12T04:17:04.897Z,93.68
2019-05-12T04:18:05.715Z,93.79
2019-05-12T04:19:05.282Z,93.79
2019-05-12T04:20:04.921Z,93.89
2019-05-12T04:21:05.449Z,93.58
2019-05-12T04:22:05.472Z,93.12
2019-05-12T04:23:05.811Z,93.37
2019-05-12T04:24:05.462Z,93.27
2019-05-12T04:25:06.082Z,93.16
2019-05-12T04:26:10.998Z,93.12
2019-05-12T04:27:05.439Z,93.43
2019-05-12T04:28:04.786Z,93.23
2019-05-12T04:29:05.087Z,93.02
2019-05-12T04:30:05.452Z,92.91
2019-05-12T04:31:05.477Z,93.23
2019-05-12T04:32:05.077Z,93.02
2019-05-12T04:33:04.932Z,92.81
2019-05-12T04:34:05.175Z,92.81
2019-05-12T04:35:04.805Z,92.81
2019-05-12T04:36:05.562Z,92.91
2019-05-12T04:37:04.573Z,92.40
2019-05-12T04:38:04.570Z,92.61
2019-05-12T04:39:04.367Z,92.77
2019-05-12T04:40:05.469Z,92.87
2019-05-12T04:41:05.798Z,92.46
2019-05-12T04:42:05.319Z,92.15
2019-05-12T04:43:05.907Z,92.46
2019-05-12T04:44:05.831Z,92.57
2019-05-12T04:45:04.585Z,92.36
2019-05-12T04:46:05.095Z,92.36
2019-05-12T04:47:05.548Z,92.63
2019-05-12T04:48:05.154Z,92.52
2019-05-12T04:49:05.248Z,92.21
2019-05-12T04:50:05.393Z,92.00
2019-05-12T04:51:05.033Z,92.00
2019-05-12T04:52:05.312Z,91.69
2019-05-12T04:53:06.033Z,92.00
2019-05-12T04:54:05.751Z,91.90
2019-05-12T04:55:04.692Z,91.07
2019-05-12T04:56:15.287Z,91.38
2019-05-12T04:57:04.650Z,91.59
2019-05-12T04:58:04.432Z,91.59
2019-05-12T04:59:04.927Z,91.69
2019-05-12T05:00:05.116Z,92.32
2019-05-12T05:01:06.355Z,91.34
2019-05-12T05:02:05.495Z,91.55
2019-05-12T05:03:05.075Z,91.24
2019-05-12T05:04:05.417Z,91.44
2019-05-12T05:05:05.379Z,90.89
2019-05-12T05:06:04.472Z,90.68
2019-05-12T05:07:04.503Z,90.47
2019-05-12T05:08:04.411Z,90.37
2019-05-12T05:09:05.054Z,90.06
2019-05-12T05:10:04.699Z,90.37
2019-05-12T05:11:04.137Z,89.86
2019-05-12T05:12:04.570Z,89.75
2019-05-12T05:13:05.142Z,90.06
2019-05-12T05:14:04.242Z,89.34
2019-05-12T05:15:05.376Z,89.40
2019-05-12T05:16:05.384Z,89.03
2019-05-12T05:17:05.566Z,89.40
2019-05-12T05:18:06.399Z,89.13
2019-05-12T05:19:03.731Z,89.29
2019-05-12T05:20:04.068Z,88.98
2019-05-12T05:21:04.682Z,88.78
2019-05-12T05:22:04.333Z,88.68
2019-05-12T05:23:03.753Z,88.31
2019-05-12T05:24:03.914Z,88.37
2019-05-12T05:25:04.267Z,88.37
2019-05-12T05:26:03.408Z,88.68
2019-05-12T05:27:04.429Z,88.89
2019-05-12T05:28:03.938Z,88.78
2019-05-12T05:29:04.290Z,88.57
2019-05-12T05:30:03.942Z,88.22
2019-05-12T05:31:03.649Z,88.26
2019-05-12T05:32:03.582Z,87.74
2019-05-12T05:33:04.479Z,88.22
2019-05-12T05:34:04.697Z,88.22
2019-05-12T05:35:04.648Z,88.43
2019-05-12T05:36:03.569Z,87.29
2019-05-12T05:37:05.053Z,87.60
2019-05-12T05:38:04.454Z,87.08
2019-05-12T05:39:04.318Z,86.98
2019-05-12T05:40:03.983Z,86.98
2019-05-12T05:41:05.945Z,86.84
2019-05-12T05:42:04.627Z,86.53
2019-05-12T05:43:12.246Z,86.02
2019-05-12T05:44:04.130Z,85.91
2019-05-12T05:45:04.912Z,86.63
2019-05-12T05:46:07.909Z,86.94
2019-05-12T05:47:04.434Z,86.63
2019-05-12T05:48:07.426Z,86.32
2019-05-12T05:49:04.286Z,86.74
2019-05-12T05:50:04.777Z,86.43
2019-05-12T05:51:05.647Z,85.97
2019-05-12T05:52:03.983Z,86.08
2019-05-12T05:53:03.859Z,85.77
2019-05-12T05:54:03.944Z,85.77
2019-05-12T05:55:05.767Z,85.87
2019-05-12T05:56:04.164Z,85.05
2019-05-12T05:57:06.012Z,85.36
2019-05-12T05:58:07.787Z,85.01
2019-05-12T05:59:04.773Z,84.91
2019-05-12T06:00:07.263Z,84.80
2019-05-12T06:01:07.943Z,85.22
2019-05-12T06:02:04.940Z,84.91
2019-05-12T06:03:05.251Z,84.29
2019-05-12T06:04:04.329Z,84.80
2019-05-12T06:05:04.518Z,84.91
2019-05-12T06:06:10.395Z,84.14
2019-05-12T06:07:04.180Z,83.98
2019-05-12T06:08:04.206Z,84.29
2019-05-12T06:09:03.735Z,84.39
2019-05-12T06:10:04.071Z,84.66
2019-05-12T06:11:04.816Z,84.97
2019-05-12T06:12:05.215Z,84.52
2019-05-12T06:13:04.207Z,84.87
2019-05-12T06:14:11.015Z,84.31
2019-05-12T06:15:04.205Z,84.11
2019-05-12T06:16:04.378Z,84.21
2019-05-12T06:17:04.295Z,83.90
2019-05-12T06:18:03.601Z,84.07
2019-05-12T06:19:03.490Z,83.80
2019-05-12T06:20:04.373Z,83.76
2019-05-12T06:21:03.473Z,83.14
2019-05-12T06:22:03.951Z,83.25
2019-05-12T06:23:04.283Z,83.76
2019-05-12T06:24:03.486Z,83.76
2019-05-12T06:25:04.938Z,83.04
2019-05-12T06:26:04.391Z,83.51
2019-05-12T06:27:14.303Z,82.69
2019-05-12T06:28:04.550Z,80.77
2019-05-12T06:29:04.430Z,80.74
2019-05-12T06:30:05.946Z,80.53
2019-05-12T06:31:04.239Z,81.67
2019-05-12T06:32:06.205Z,81.56
2019-05-12T06:33:04.202Z,81.25
2019-05-12T06:34:07.957Z,81.56
2019-05-12T06:35:04.527Z,81.52
2019-05-12T06:36:04.447Z,80.70
2019-05-12T06:37:11.628Z,80.39
2019-05-12T06:38:05.092Z,79.88
2019-05-12T06:39:04.362Z,80.19
2019-05-12T06:40:03.586Z,80.70
2019-05-12T06:41:03.604Z,80.08
2019-05-12T06:42:12.330Z,80.15
2019-05-12T06:43:04.305Z,79.33
2019-05-12T06:44:03.750Z,78.71
2019-05-12T06:45:03.770Z,79.53
2019-05-12T06:46:03.656Z,79.84
2019-05-12T06:47:07.079Z,80.05
2019-05-12T06:48:03.500Z,80.05
2019-05-12T06:49:11.984Z,78.81
2019-05-12T06:50:03.870Z,78.92
2019-05-12T06:51:04.042Z,77.75
2019-05-12T06:52:06.873Z,78.57
2019-05-12T06:53:04.711Z,78.06
2019-05-12T06:54:07.425Z,76.51
2019-05-12T06:55:03.989Z,76.93
2019-05-12T06:56:04.384Z,77.95
2019-05-12T06:57:18.607Z,75.90
2019-05-12T06:58:04.731Z,76.14
2019-05-12T06:59:09.923Z,76.93
2019-05-12T07:00:04.603Z,77.85
2019-05-12T07:01:10.163Z,78.53
2019-05-12T07:02:03.458Z,77.51
2019-05-12T07:03:03.924Z,77.61
2019-05-12T07:04:06.800Z,77.00
2019-05-12T07:05:04.362Z,76.68
2019-05-12T07:06:04.087Z,77.10
2019-05-12T07:07:03.615Z,77.20
2019-05-12T07:08:04.154Z,77.10
2019-05-12T07:09:09.060Z,76.89
2019-05-12T07:10:11.856Z,78.39
2019-05-12T07:11:05.948Z,76.45
2019-05-12T07:12:06.649Z,75.73
2019-05-12T07:13:05.602Z,76.45
2019-05-12T07:14:08.022Z,76.34
2019-05-12T07:15:03.819Z,76.92
2019-05-12T07:16:03.744Z,76.20
2019-05-12T07:17:05.683Z,76.04
2019-05-12T07:18:04.045Z,76.65
2019-05-12T07:19:07.609Z,75.73
2019-05-12T07:20:03.992Z,74.91
2019-05-12T07:21:04.012Z,74.87
2019-05-12T07:22:03.583Z,75.59
2019-05-12T07:23:03.979Z,74.46
2019-05-12T07:24:06.633Z,74.32
2019-05-12T07:25:04.543Z,74.94
2019-05-12T07:26:04.776Z,74.32
2019-05-12T07:27:08.761Z,73.61
2019-05-12T07:28:07.571Z,73.91
2019-05-12T07:29:04.450Z,72.99
2019-05-12T07:30:01.931Z,73.30
2019-05-12T07:31:03.797Z,73.40
2019-05-12T07:32:07.278Z,72.44
2019-05-12T07:33:04.522Z,72.55
2019-05-12T07:34:05.281Z,70.19
2019-05-12T07:35:03.909Z,71.73
2019-05-12T07:36:06.208Z,71.11
2019-05-12T07:37:04.253Z,71.11
2019-05-12T07:38:04.246Z,69.95
2019-05-12T07:39:06.226Z,69.13
2019-05-12T07:40:04.854Z,68.52
2019-05-12T07:41:08.833Z,67.90
2019-05-12T07:42:03.657Z,68.32
2019-05-12T07:43:03.757Z,68.18
2019-05-12T07:44:03.553Z,68.59
2019-05-12T07:45:03.795Z,68.38
2019-05-12T07:46:03.169Z,66.98
2019-05-12T07:47:03.636Z,66.03
2019-05-12T07:48:05.730Z,65.31
2019-05-12T07:49:03.942Z,63.81
2019-05-12T07:50:04.312Z,63.57
2019-05-12T07:51:03.998Z,64.80
2019-05-12T07:52:03.654Z,65.11
2019-05-12T07:53:04.025Z,65.08
2019-05-12T07:54:03.880Z,67.87
2019-05-12T07:55:04.123Z,67.23
2019-05-12T07:56:03.957Z,66.24
2019-05-12T07:57:05.374Z,66.03
2019-05-12T07:58:10.208Z,66.06
2019-05-12T07:59:04.380Z,66.44
2019-05-12T08:00:03.640Z,67.94
2019-05-12T08:01:02.728Z,67.50
2019-05-12T08:02:03.749Z,67.30
2019-05-12T08:03:08.030Z,65.66
2019-05-12T08:04:04.568Z,64.77
2019-05-12T08:05:03.894Z,63.68
2019-05-12T08:06:04.043Z,64.47
2019-05-12T08:07:03.748Z,64.39
2019-05-12T08:08:08.717Z,66.10
2019-05-12T08:09:04.173Z,65.97
2019-05-12T08:10:07.204Z,65.56
2019-05-12T08:11:04.405Z,60.27
2019-05-12T08:12:03.475Z,61.40
2019-05-12T08:13:01.436Z,62.90
2019-05-12T08:14:03.490Z,66.35
2019-05-12T08:15:07.739Z,64.33
2019-05-12T08:16:03.692Z,63.39
2019-05-12T08:17:10.456Z,63.39
2019-05-12T08:18:07.489Z,63.07
2019-05-12T08:19:03.967Z,61.26
2019-05-12T08:20:01.365Z,60.55
2019-05-12T08:21:03.602Z,61.80
2019-05-12T08:22:01.341Z,64.33
2019-05-12T08:23:05.734Z,64.61
2019-05-12T08:24:03.751Z,65.02
2019-05-12T08:25:01.312Z,63.39
2019-05-12T08:26:03.763Z,61.57
2019-05-12T08:27:06.210Z,61.44
2019-05-12T08:28:12.423Z,61.36
2019-05-12T08:29:04.266Z,61.26
2019-05-12T08:30:03.011Z,61.98
2019-05-12T08:31:03.461Z,65.59
2019-05-12T08:32:03.648Z,65.46
2019-05-12T08:33:03.820Z,63.89
2019-05-12T08:34:04.195Z,63.86
2019-05-12T08:35:01.236Z,64.58
2019-05-12T08:36:03.131Z,64.75
2019-05-12T08:37:04.156Z,63.25
2019-05-12T08:38:03.640Z,61.82
2019-05-12T08:39:03.836Z,59.98
2019-05-12T08:40:04.044Z,59.75
2019-05-12T08:41:04.282Z,61.21
2019-05-12T08:42:01.111Z,59.19
2019-05-12T08:43:08.203Z,60.19
2019-05-12T08:44:04.443Z,59.19
2019-05-12T08:45:03.885Z,59.83
2019-05-12T08:46:06.998Z,60.24
2019-05-12T08:47:03.954Z,62.08
2019-05-12T08:48:03.683Z,60.35
2019-05-12T08:49:03.043Z,59.83
2019-05-12T08:50:01.033Z,57.81
2019-05-12T08:51:05.239Z,59.66
2019-05-12T08:52:03.895Z,60.78
2019-05-12T08:53:01.042Z,60.47
2019-05-12T08:54:03.191Z,62.32
2019-05-12T08:55:04.096Z,61.40
2019-05-12T08:56:05.025Z,61.98
2019-05-12T08:57:03.834Z,61.95
2019-05-12T08:58:00.959Z,61.00
2019-05-12T08:59:00.961Z,59.64
2019-05-12T09:00:03.299Z,59.23
2019-05-12T09:01:04.255Z,60.10
2019-05-12T09:02:05.753Z,58.67
2019-05-12T09:03:03.576Z,57.42
2019-05-12T09:04:06.685Z,57.19
2019-05-12T09:05:04.433Z,57.21
2019-05-12T09:06:00.847Z,57.12
2019-05-12T09:07:00.922Z,58.75
2019-05-12T09:08:00.824Z,59.80
2019-05-12T09:09:00.855Z,60.00
2019-05-12T09:10:00.794Z,60.71
2019-05-12T09:11:00.829Z,61.63
2019-05-12T09:12:00.784Z,59.92
2019-05-12T09:13:00.768Z,61.05
2019-05-12T09:14:02.936Z,59.82
2019-05-12T09:15:00.754Z,60.03
2019-05-12T09:16:00.733Z,61.15
2019-05-12T09:17:03.950Z,59.82
2019-05-12T09:18:04.384Z,59.75
2019-05-12T09:19:00.716Z,59.44
2019-05-12T09:20:06.056Z,59.55
2019-05-12T09:21:03.837Z,60.16
2019-05-12T09:22:05.500Z,58.73
2019-05-12T09:23:02.774Z,59.85
2019-05-12T09:24:00.645Z,62.20
2019-05-12T09:25:06.347Z,61.90
2019-05-12T09:26:03.710Z,60.77
2019-05-12T09:27:06.903Z,60.67
2019-05-12T09:28:03.572Z,61.28
2019-05-12T09:29:00.632Z,60.26
2019-05-12T09:30:07.672Z,59.95
2019-05-12T09:31:03.572Z,59.44
2019-05-12T09:32:05.332Z,61.25
2019-05-12T09:33:03.738Z,59.31
2019-05-12T09:34:05.914Z,56.89
2019-05-12T09:35:03.786Z,59.82
2019-05-12T09:36:00.650Z,58.09
2019-05-12T09:37:01.118Z,58.06
2019-05-12T09:38:02.981Z,60.71
2019-05-12T09:39:02.959Z,59.56
2019-05-12T09:40:00.484Z,57.96
2019-05-12T09:41:01.380Z,57.34
2019-05-12T09:42:00.452Z,57.98
2019-05-12T09:43:08.632Z,59.31
2019-05-12T09:44:02.458Z,61.46
2019-05-12T09:45:08.132Z,61.15
2019-05-12T09:46:03.794Z,60.67
2019-05-12T09:47:00.476Z,60.67
2019-05-12T09:48:04.902Z,59.75
2019-05-12T09:49:01.400Z,60.26
2019-05-12T09:50:00.369Z,61.49
2019-05-12T09:51:01.998Z,60.87
2019-05-12T09:52:00.461Z,59.85
2019-05-12T09:53:00.713Z,59.03
2019-05-12T09:54:01.351Z,55.05
2019-05-12T09:55:00.312Z,57.04
2019-05-12T09:56:00.289Z,58.54
2019-05-12T09:57:00.279Z,57.70
2019-05-12T09:58:00.312Z,58.21
2019-05-12T09:59:02.702Z,56.27
2019-05-12T10:00:01.255Z,55.84
2019-05-12T10:01:00.244Z,56.65
2019-05-12T10:02:00.232Z,55.43
2019-05-12T10:03:00.842Z,54.44
2019-05-12T10:04:00.247Z,54.00
2019-05-12T10:05:00.909Z,55.94
2019-05-12T10:06:00.179Z,57.11
2019-05-12T10:07:00.166Z,55.99
2019-05-12T10:08:00.159Z,55.89
2019-05-12T10:09:00.156Z,55.41
2019-05-12T10:10:00.336Z,56.12
2019-05-12T10:11:00.128Z,55.02
2019-05-12T10:12:01.168Z,54.11
2019-05-12T10:13:00.097Z,54.61
2019-05-12T10:14:05.172Z,55.02
2019-05-12T10:15:01.120Z,54.39
2019-05-12T10:16:07.399Z,55.91
2019-05-12T10:17:03.425Z,55.99
2019-05-12T10:18:05.298Z,57.56
2019-05-12T10:19:01.031Z,54.18
2019-05-12T10:20:00.025Z,52.86
2019-05-12T10:21:00.051Z,51.56
2019-05-12T10:22:00.016Z,53.29
2019-05-12T10:22:59.989Z,55.91
2019-05-12T10:24:02.087Z,54.46
2019-05-12T10:25:00.066Z,54.74
2019-05-12T10:26:01.542Z,54.36
2019-05-12T10:27:03.559Z,56.70
2019-05-12T10:28:05.318Z,55.81
2019-05-12T10:29:14.128Z,54.08
2019-05-12T10:30:05.580Z,55.83
2019-05-12T10:31:00.920Z,56.95
2019-05-12T10:31:59.896Z,57.36
2019-05-12T10:32:59.936Z,54.74
2019-05-12T10:33:59.873Z,55.25
2019-05-12T10:34:59.861Z,56.20
2019-05-12T10:36:06.836Z,55.79
2019-05-12T10:37:00.845Z,55.58
2019-05-12T10:38:00.235Z,56.09
2019-05-12T10:39:00.851Z,56.52
2019-05-12T10:39:59.809Z,55.94
2019-05-12T10:40:59.800Z,57.17
2019-05-12T10:41:59.786Z,56.85
2019-05-12T10:42:59.776Z,57.70
2019-05-12T10:43:59.774Z,57.50
2019-05-12T10:44:59.790Z,56.96
2019-05-12T10:45:59.740Z,57.98
2019-05-12T10:46:59.731Z,56.83
2019-05-12T10:47:59.717Z,57.54
2019-05-12T10:48:59.713Z,56.68
2019-05-12T10:49:59.706Z,53.29
2019-05-12T10:50:59.729Z,52.30
2019-05-12T10:51:59.673Z,52.48
2019-05-12T10:52:59.669Z,54.51
2019-05-12T10:54:07.723Z,53.88
2019-05-12T10:55:00.641Z,53.24
2019-05-12T10:55:59.637Z,53.14
2019-05-12T10:56:59.681Z,52.51
2019-05-12T10:58:01.803Z,52.43
2019-05-12T10:59:00.603Z,50.70
2019-05-12T10:59:59.591Z,51.62
2019-05-12T11:01:05.290Z,50.29
2019-05-12T11:02:00.607Z,50.48
2019-05-12T11:03:01.463Z,49.64
2019-05-12T11:04:00.560Z,48.40
2019-05-12T11:04:59.550Z,48.40
2019-05-12T11:06:02.528Z,49.27
2019-05-12T11:07:00.510Z,50.28
2019-05-12T11:08:00.295Z,50.91
2019-05-12T11:09:00.491Z,49.23
2019-05-12T11:10:05.170Z,51.26
2019-05-12T11:11:01.376Z,49.44
2019-05-12T11:11:59.491Z,50.27
2019-05-12T11:13:59.553Z,50.22
2019-05-12T11:15:06.299Z,51.06
2019-05-12T11:16:00.412Z,48.69
2019-05-12T11:17:02.107Z,50.68
2019-05-12T11:18:00.404Z,48.88
2019-05-12T11:19:00.238Z,49.21
2019-05-12T11:20:00.483Z,50.33
2019-05-12T11:20:59.568Z,49.54
2019-05-12T11:22:03.503Z,50.68
2019-05-12T11:23:00.335Z,50.58
2019-05-12T11:23:59.333Z,51.59
2019-05-12T11:24:59.313Z,51.59
2019-05-12T11:25:59.389Z,51.92
2019-05-12T11:26:59.322Z,50.40
2019-05-12T11:27:59.279Z,50.50
2019-05-12T11:28:59.267Z,50.29
2019-05-12T11:29:59.260Z,50.45
2019-05-12T11:30:59.245Z,50.76
2019-05-12T11:31:59.299Z,52.48
2019-05-12T11:32:59.764Z,51.37
2019-05-12T11:33:59.212Z,52.89
2019-05-12T11:34:59.397Z,50.35
2019-05-12T11:35:59.262Z,48.44
2019-05-12T11:36:59.192Z,48.63
2019-05-12T11:37:59.233Z,49.95
2019-05-12T11:38:59.155Z,50.76
2019-05-12T11:39:59.215Z,51.21
2019-05-12T11:40:59.136Z,52.76
2019-05-12T11:41:59.131Z,54.39
2019-05-12T11:43:01.126Z,52.86
2019-05-12T11:43:59.130Z,52.45
2019-05-12T11:44:59.094Z,52.81
2019-05-12T11:45:59.085Z,52.89
2019-05-12T11:46:59.070Z,50.91
2019-05-12T11:48:05.179Z,48.38
2019-05-12T11:49:00.419Z,48.68
2019-05-12T11:50:05.203Z,49.29
2019-05-12T11:51:00.025Z,49.39
2019-05-12T11:52:01.049Z,49.34
2019-05-12T11:53:00.015Z,49.14
2019-05-12T11:54:03.598Z,49.37
2019-05-12T11:55:00.032Z,51.44
2019-05-12T11:56:02.365Z,50.45
2019-05-12T11:56:59.978Z,51.77
2019-05-12T11:58:00.250Z,52.46
2019-05-12T11:58:59.946Z,50.79
2019-05-12T12:00:02.017Z,49.85
2019-05-12T12:01:06.401Z,52.23
2019-05-12T12:01:59.996Z,51.81
2019-05-12T12:03:03.767Z,49.05
2019-05-12T12:03:59.884Z,46.87
2019-05-12T12:04:58.874Z,46.89
2019-05-12T12:05:58.864Z,46.30
2019-05-12T12:06:59.053Z,48.55
2019-05-12T12:07:58.852Z,48.35
2019-05-12T12:08:58.831Z,47.67
2019-05-12T12:09:59.586Z,47.86
2019-05-12T12:10:58.813Z,46.09
2019-05-12T12:12:05.564Z,44.15
2019-05-12T12:12:59.983Z,44.37
2019-05-12T12:14:00.312Z,47.23
2019-05-12T12:14:59.770Z,46.46
2019-05-12T12:16:00.670Z,47.31
2019-05-12T12:16:59.740Z,47.34
2019-05-12T12:18:03.969Z,48.71
2019-05-12T12:19:02.516Z,46.43
2019-05-12T12:19:58.773Z,47.54
2019-05-12T12:21:04.299Z,47.22
2019-05-12T12:21:59.692Z,44.72
2019-05-12T12:23:00.258Z,44.56
2019-05-12T12:23:59.674Z,44.56
2019-05-12T12:25:05.062Z,42.94
2019-05-12T12:25:59.641Z,44.52
2019-05-12T12:26:58.635Z,44.54
2019-05-12T12:27:58.645Z,46.56
2019-05-12T12:28:58.642Z,45.37
2019-05-12T12:30:12.138Z,45.47
2019-05-12T12:31:01.918Z,46.99
2019-05-12T12:31:59.592Z,48.54
2019-05-12T12:33:00.259Z,50.59
2019-05-12T12:33:58.559Z,50.26
2019-05-12T12:35:00.892Z,48.46
2019-05-12T12:36:00.885Z,46.91
2019-05-12T12:36:58.575Z,45.87
2019-05-12T12:37:58.518Z,47.39
2019-05-12T12:38:58.525Z,48.46
2019-05-12T12:39:58.531Z,47.19
2019-05-12T12:40:58.488Z,45.14
2019-05-12T12:42:00.442Z,43.30
2019-05-12T12:42:59.070Z,43.89
2019-05-12T12:43:59.454Z,43.48
2019-05-12T12:44:59.273Z,40.86
2019-05-12T12:45:58.505Z,41.55
2019-05-12T12:47:00.397Z,44.37
2019-05-12T12:47:58.415Z,44.49
2019-05-12T12:49:00.080Z,45.44
2019-05-12T12:49:59.427Z,40.46
2019-05-12T12:50:58.400Z,43.24
2019-05-12T12:51:58.364Z,42.88
2019-05-12T12:52:58.362Z,43.49